Quincy, Illinois
Current Conditions -  °F | °C
As of 6:54 AM on Monday 24 Nov 2014 (Local Time) from KUIN Reporting Station
Overcast Overcast  
Wind Chill: 22°   Ceiling: 1500
Heat Index: 34°   Visibility: 10mi
Dew Point: 29°   Wind: 21mph
Humidity: 82%   Direction: 270°W
Pressure: 29.43"   Gusts: 28mph
Location:  39.94°N, 91.39°W
Report Text: KUIN 241254Z AUTO 27018G24KT 10SM OVC015 01/M02 A2943 RMK AO2 PK WND 27028/1220 SLP969 T00111017
Loading
Personal Weather Stations






























Interactive Weather Map New forecast layout! Learn more

10-Day Weather Forecast

Advertisements
Track Severe Weather on mobile